sensor_id;sensor_type;location;lat;lon;timestamp;P1;durP1;ratioP1;P2;durP2;ratioP2
5867;SDS011;2960;49.142;7.768;2023-07-31T00:00:16;11.17;;;4.60;;
5867;SDS011;2960;49.142;7.768;2023-07-31T00:02:43;11.10;;;4.50;;
5867;SDS011;2960;49.142;7.768;2023-07-31T00:05:10;12.27;;;4.30;;
5867;SDS011;2960;49.142;7.768;2023-07-31T00:07:37;11.60;;;4.70;;
5867;SDS011;2960;49.142;7.768;2023-07-31T00:10:05;10.90;;;4.37;;
5867;SDS011;2960;49.142;7.768;2023-07-31T00:12:33;11.43;;;4.90;;
5867;SDS011;2960;49.142;7.768;2023-07-31T00:15:00;11.40;;;4.40;;
5867;SDS011;2960;49.142;7.768;2023-07-31T00:17:29;12.60;;;4.77;;
5867;SDS011;2960;49.142;7.768;2023-07-31T00:19:56;11.30;;;4.50;;
5867;SDS011;2960;49.142;7.768;2023-07-31T00:22:23;11.20;;;4.40;;
5867;SDS011;2960;49.142;7.768;2023-07-31T00:24:52;11.77;;;4.63;;
5867;SDS011;2960;49.142;7.768;2023-07-31T00:27:19;11.90;;;4.80;;
5867;SDS011;2960;49.142;7.768;2023-07-31T00:29:46;11.30;;;4.50;;
5867;SDS011;2960;49.142;7.768;2023-07-31T00:32:13;11.10;;;4.70;;
5867;SDS011;2960;49.142;7.768;2023-07-31T00:34:41;10.97;;;4.57;;
5867;SDS011;2960;49.142;7.768;2023-07-31T00:37:08;11.43;;;4.70;;
5867;SDS011;2960;49.142;7.768;2023-07-31T00:39:35;11.30;;;4.73;;
5867;SDS011;2960;49.142;7.768;2023-07-31T00:42:03;12.57;;;4.80;;
5867;SDS011;2960;49.142;7.768;2023-07-31T00:44:31;11.53;;;4.80;;
5867;SDS011;2960;49.142;7.768;2023-07-31T00:46:58;11.90;;;4.97;;
5867;SDS011;2960;49.142;7.768;2023-07-31T00:49:26;11.20;;;4.37;;
5867;SDS011;2960;49.142;7.768;2023-07-31T00:51:54;11.70;;;4.87;;
5867;SDS011;2960;49.142;7.768;2023-07-31T00:54:22;10.97;;;4.70;;
5867;SDS011;2960;49.142;7.768;2023-07-31T00:56:49;11.00;;;4.50;;
5867;SDS011;2960;49.142;7.768;2023-07-31T00:59:19;10.90;;;4.53;;
5867;SDS011;2960;49.142;7.768;2023-07-31T01:01:46;11.10;;;4.33;;
5867;SDS011;2960;49.142;7.768;2023-07-31T01:04:13;11.70;;;4.70;;
5867;SDS011;2960;49.142;7.768;2023-07-31T01:06:43;11.37;;;4.60;;
5867;SDS011;2960;49.142;7.768;2023-07-31T01:09:20;11.33;;;4.20;;
5867;SDS011;2960;49.142;7.768;2023-07-31T01:11:56;11.50;;;4.70;;
5867;SDS011;2960;49.142;7.768;2023-07-31T01:14:27;11.10;;;4.50;;
5867;SDS011;2960;49.142;7.768;2023-07-31T01:16:54;11.40;;;4.70;;
5867;SDS011;2960;49.142;7.768;2023-07-31T01:19:22;13.10;;;4.53;;
5867;SDS011;2960;49.142;7.768;2023-07-31T01:25:00;11.30;;;4.87;;
5867;SDS011;2960;49.142;7.768;2023-07-31T01:27:50;11.30;;;4.50;;
5867;SDS011;2960;49.142;7.768;2023-07-31T01:30:27;10.90;;;4.30;;
5867;SDS011;2960;49.142;7.768;2023-07-31T01:33:00;11.03;;;4.33;;
5867;SDS011;2960;49.142;7.768;2023-07-31T01:35:32;12.13;;;4.93;;
5867;SDS011;2960;49.142;7.768;2023-07-31T01:38:01;11.53;;;4.70;;
5867;SDS011;2960;49.142;7.768;2023-07-31T01:40:30;11.23;;;4.43;;
5867;SDS011;2960;49.142;7.768;2023-07-31T01:42:59;11.47;;;4.63;;
5867;SDS011;2960;49.142;7.768;2023-07-31T01:45:26;11.50;;;4.50;;
5867;SDS011;2960;49.142;7.768;2023-07-31T01:47:53;11.70;;;4.70;;
5867;SDS011;2960;49.142;7.768;2023-07-31T01:50:23;11.97;;;4.77;;
5867;SDS011;2960;49.142;7.768;2023-07-31T01:52:50;11.00;;;4.40;;
5867;SDS011;2960;49.142;7.768;2023-07-31T01:55:17;12.00;;;4.60;;
5867;SDS011;2960;49.142;7.768;2023-07-31T01:57:44;10.77;;;4.40;;
5867;SDS011;2960;49.142;7.768;2023-07-31T02:00:13;10.93;;;4.50;;
5867;SDS011;2960;49.142;7.768;2023-07-31T02:02:40;11.10;;;4.40;;
5867;SDS011;2960;49.142;7.768;2023-07-31T02:05:07;10.80;;;4.43;;
5867;SDS011;2960;49.142;7.768;2023-07-31T02:07:34;11.33;;;4.50;;
5867;SDS011;2960;49.142;7.768;2023-07-31T02:10:01;11.90;;;4.60;;
5867;SDS011;2960;49.142;7.768;2023-07-31T02:12:29;12.13;;;4.50;;
5867;SDS011;2960;49.142;7.768;2023-07-31T02:14:57;11.20;;;4.53;;
5867;SDS011;2960;49.142;7.768;2023-07-31T02:17:25;11.37;;;4.70;;
5867;SDS011;2960;49.142;7.768;2023-07-31T02:19:52;10.83;;;4.40;;
5867;SDS011;2960;49.142;7.768;2023-07-31T02:22:19;11.40;;;4.50;;
5867;SDS011;2960;49.142;7.768;2023-07-31T02:24:47;10.80;;;4.50;;
5867;SDS011;2960;49.142;7.768;2023-07-31T02:27:14;11.33;;;4.67;;
5867;SDS011;2960;49.142;7.768;2023-07-31T02:29:41;11.50;;;4.70;;
5867;SDS011;2960;49.142;7.768;2023-07-31T02:32:08;11.33;;;4.47;;
5867;SDS011;2960;49.142;7.768;2023-07-31T02:34:37;10.53;;;4.00;;
5867;SDS011;2960;49.142;7.768;2023-07-31T02:37:04;11.20;;;4.40;;
5867;SDS011;2960;49.142;7.768;2023-07-31T02:39:32;11.20;;;4.30;;
5867;SDS011;2960;49.142;7.768;2023-07-31T02:41:59;10.80;;;4.30;;
5867;SDS011;2960;49.142;7.768;2023-07-31T02:44:26;12.83;;;4.80;;
5867;SDS011;2960;49.142;7.768;2023-07-31T02:46:53;11.50;;;4.50;;
5867;SDS011;2960;49.142;7.768;2023-07-31T02:49:20;11.10;;;4.50;;
5867;SDS011;2960;49.142;7.768;2023-07-31T02:51:49;11.10;;;4.17;;
5867;SDS011;2960;49.142;7.768;2023-07-31T02:54:16;11.10;;;4.17;;
5867;SDS011;2960;49.142;7.768;2023-07-31T02:56:45;10.90;;;4.30;;
5867;SDS011;2960;49.142;7.768;2023-07-31T02:59:12;11.20;;;4.33;;
5867;SDS011;2960;49.142;7.768;2023-07-31T03:01:39;11.33;;;4.10;;
5867;SDS011;2960;49.142;7.768;2023-07-31T03:04:07;14.50;;;4.53;;
5867;SDS011;2960;49.142;7.768;2023-07-31T03:06:34;10.80;;;4.07;;
5867;SDS011;2960;49.142;7.768;2023-07-31T03:09:02;11.30;;;4.40;;
5867;SDS011;2960;49.142;7.768;2023-07-31T03:11:30;13.63;;;4.63;;
5867;SDS011;2960;49.142;7.768;2023-07-31T03:13:57;13.03;;;4.73;;
5867;SDS011;2960;49.142;7.768;2023-07-31T03:16:24;10.80;;;4.10;;
5867;SDS011;2960;49.142;7.768;2023-07-31T03:18:51;11.83;;;4.30;;
5867;SDS011;2960;49.142;7.768;2023-07-31T03:21:18;12.40;;;4.20;;
5867;SDS011;2960;49.142;7.768;2023-07-31T03:23:45;11.00;;;4.10;;
5867;SDS011;2960;49.142;7.768;2023-07-31T03:26:14;11.47;;;4.47;;
5867;SDS011;2960;49.142;7.768;2023-07-31T03:28:41;11.43;;;4.60;;
5867;SDS011;2960;49.142;7.768;2023-07-31T03:31:08;10.70;;;4.10;;
5867;SDS011;2960;49.142;7.768;2023-07-31T03:33:36;10.80;;;4.37;;
5867;SDS011;2960;49.142;7.768;2023-07-31T03:36:04;11.23;;;4.40;;
5867;SDS011;2960;49.142;7.768;2023-07-31T03:38:33;11.33;;;4.10;;
5867;SDS011;2960;49.142;7.768;2023-07-31T03:41:02;10.60;;;3.70;;
5867;SDS011;2960;49.142;7.768;2023-07-31T03:43:32;12.50;;;4.63;;
5867;SDS011;2960;49.142;7.768;2023-07-31T03:45:59;11.00;;;4.30;;
5867;SDS011;2960;49.142;7.768;2023-07-31T03:48:27;12.60;;;4.40;;
5867;SDS011;2960;49.142;7.768;2023-07-31T03:50:54;11.20;;;4.47;;
5867;SDS011;2960;49.142;7.768;2023-07-31T03:53:22;11.43;;;4.00;;
5867;SDS011;2960;49.142;7.768;2023-07-31T03:55:49;11.23;;;4.40;;
5867;SDS011;2960;49.142;7.768;2023-07-31T03:58:16;14.83;;;4.40;;
5867;SDS011;2960;49.142;7.768;2023-07-31T04:00:45;11.00;;;4.10;;
5867;SDS011;2960;49.142;7.768;2023-07-31T04:03:13;11.10;;;4.20;;
5867;SDS011;2960;49.142;7.768;2023-07-31T04:05:40;11.63;;;4.17;;
5867;SDS011;2960;49.142;7.768;2023-07-31T04:08:07;10.63;;;3.90;;
5867;SDS011;2960;49.142;7.768;2023-07-31T04:10:34;10.70;;;4.03;;
5867;SDS011;2960;49.142;7.768;2023-07-31T04:13:01;11.83;;;4.00;;
5867;SDS011;2960;49.142;7.768;2023-07-31T04:15:28;11.07;;;4.30;;
5867;SDS011;2960;49.142;7.768;2023-07-31T04:17:56;11.10;;;4.30;;
5867;SDS011;2960;49.142;7.768;2023-07-31T04:20:23;11.97;;;4.60;;
5867;SDS011;2960;49.142;7.768;2023-07-31T04:22:51;11.03;;;4.30;;
5867;SDS011;2960;49.142;7.768;2023-07-31T04:25:18;11.40;;;4.20;;
5867;SDS011;2960;49.142;7.768;2023-07-31T04:27:45;11.10;;;4.27;;
5867;SDS011;2960;49.142;7.768;2023-07-31T04:30:12;14.00;;;4.67;;
5867;SDS011;2960;49.142;7.768;2023-07-31T04:32:39;11.20;;;4.20;;
5867;SDS011;2960;49.142;7.768;2023-07-31T04:35:08;11.50;;;4.33;;
5867;SDS011;2960;49.142;7.768;2023-07-31T04:37:36;11.33;;;4.10;;
5867;SDS011;2960;49.142;7.768;2023-07-31T04:40:04;11.33;;;3.83;;
5867;SDS011;2960;49.142;7.768;2023-07-31T04:42:33;11.27;;;4.10;;
5867;SDS011;2960;49.142;7.768;2023-07-31T04:45:00;11.27;;;4.33;;
5867;SDS011;2960;49.142;7.768;2023-07-31T04:47:27;11.40;;;4.53;;
5867;SDS011;2960;49.142;7.768;2023-07-31T04:49:54;10.87;;;4.30;;
5867;SDS011;2960;49.142;7.768;2023-07-31T04:52:23;11.07;;;4.10;;
5867;SDS011;2960;49.142;7.768;2023-07-31T04:54:50;11.23;;;4.20;;
5867;SDS011;2960;49.142;7.768;2023-07-31T04:57:17;11.23;;;3.70;;
5867;SDS011;2960;49.142;7.768;2023-07-31T04:59:44;10.67;;;3.90;;
5867;SDS011;2960;49.142;7.768;2023-07-31T05:02:11;11.30;;;4.40;;
5867;SDS011;2960;49.142;7.768;2023-07-31T05:04:39;11.50;;;4.40;;
5867;SDS011;2960;49.142;7.768;2023-07-31T05:07:06;11.00;;;3.97;;
5867;SDS011;2960;49.142;7.768;2023-07-31T05:09:34;11.57;;;4.10;;
5867;SDS011;2960;49.142;7.768;2023-07-31T05:12:01;11.40;;;4.20;;
5867;SDS011;2960;49.142;7.768;2023-07-31T05:14:31;10.60;;;4.10;;
5867;SDS011;2960;49.142;7.768;2023-07-31T05:16:58;11.20;;;4.07;;
5867;SDS011;2960;49.142;7.768;2023-07-31T05:19:25;11.10;;;4.10;;
5867;SDS011;2960;49.142;7.768;2023-07-31T05:21:52;10.90;;;4.00;;
5867;SDS011;2960;49.142;7.768;2023-07-31T05:24:19;10.80;;;3.93;;
5867;SDS011;2960;49.142;7.768;2023-07-31T05:26:48;11.27;;;4.23;;
5867;SDS011;2960;49.142;7.768;2023-07-31T05:29:15;12.80;;;4.50;;
5867;SDS011;2960;49.142;7.768;2023-07-31T05:31:42;10.80;;;3.90;;
5867;SDS011;2960;49.142;7.768;2023-07-31T05:34:10;11.27;;;4.20;;
5867;SDS011;2960;49.142;7.768;2023-07-31T05:36:37;11.10;;;4.10;;
5867;SDS011;2960;49.142;7.768;2023-07-31T05:39:04;10.67;;;3.87;;
5867;SDS011;2960;49.142;7.768;2023-07-31T05:41:33;11.73;;;4.10;;
5867;SDS011;2960;49.142;7.768;2023-07-31T05:44:03;11.60;;;4.00;;
5867;SDS011;2960;49.142;7.768;2023-07-31T05:46:30;12.30;;;4.37;;
5867;SDS011;2960;49.142;7.768;2023-07-31T05:48:58;10.97;;;4.00;;
5867;SDS011;2960;49.142;7.768;2023-07-31T05:51:26;10.70;;;3.90;;
5867;SDS011;2960;49.142;7.768;2023-07-31T05:53:53;10.77;;;3.90;;
5867;SDS011;2960;49.142;7.768;2023-07-31T05:56:20;11.00;;;4.13;;
5867;SDS011;2960;49.142;7.768;2023-07-31T05:58:47;11.27;;;3.87;;
5867;SDS011;2960;49.142;7.768;2023-07-31T06:01:17;11.00;;;4.13;;
5867;SDS011;2960;49.142;7.768;2023-07-31T06:03:46;10.40;;;3.60;;
5867;SDS011;2960;49.142;7.768;2023-07-31T06:06:13;11.67;;;4.10;;
5867;SDS011;2960;49.142;7.768;2023-07-31T06:08:40;10.70;;;3.70;;
5867;SDS011;2960;49.142;7.768;2023-07-31T06:11:07;11.30;;;4.37;;
5867;SDS011;2960;49.142;7.768;2023-07-31T06:13:34;11.47;;;4.40;;
5867;SDS011;2960;49.142;7.768;2023-07-31T06:16:01;11.43;;;4.23;;
5867;SDS011;2960;49.142;7.768;2023-07-31T06:18:31;10.80;;;4.10;;
5867;SDS011;2960;49.142;7.768;2023-07-31T06:20:58;11.13;;;4.37;;
5867;SDS011;2960;49.142;7.768;2023-07-31T06:23:26;11.17;;;3.80;;
5867;SDS011;2960;49.142;7.768;2023-07-31T06:25:53;11.10;;;4.17;;
5867;SDS011;2960;49.142;7.768;2023-07-31T06:28:20;11.37;;;4.33;;
5867;SDS011;2960;49.142;7.768;2023-07-31T06:30:47;11.73;;;4.70;;
5867;SDS011;2960;49.142;7.768;2023-07-31T06:33:14;11.73;;;4.23;;
5867;SDS011;2960;49.142;7.768;2023-07-31T06:35:42;11.73;;;4.13;;
5867;SDS011;2960;49.142;7.768;2023-07-31T06:38:10;11.87;;;4.27;;
5867;SDS011;2960;49.142;7.768;2023-07-31T06:40:37;11.07;;;4.03;;
5867;SDS011;2960;49.142;7.768;2023-07-31T06:43:05;11.53;;;4.20;;
5867;SDS011;2960;49.142;7.768;2023-07-31T06:45:33;11.90;;;4.60;;
5867;SDS011;2960;49.142;7.768;2023-07-31T06:48:00;11.60;;;4.30;;
5867;SDS011;2960;49.142;7.768;2023-07-31T06:50:29;10.90;;;4.33;;
5867;SDS011;2960;49.142;7.768;2023-07-31T06:52:57;11.10;;;4.33;;
5867;SDS011;2960;49.142;7.768;2023-07-31T06:55:25;11.23;;;4.53;;
5867;SDS011;2960;49.142;7.768;2023-07-31T06:57:53;13.43;;;4.47;;
5867;SDS011;2960;49.142;7.768;2023-07-31T07:00:22;11.07;;;4.40;;
5867;SDS011;2960;49.142;7.768;2023-07-31T07:02:49;10.73;;;4.00;;
5867;SDS011;2960;49.142;7.768;2023-07-31T07:05:17;11.13;;;4.20;;
5867;SDS011;2960;49.142;7.768;2023-07-31T07:07:44;11.27;;;4.27;;
5867;SDS011;2960;49.142;7.768;2023-07-31T07:10:13;11.30;;;4.53;;
5867;SDS011;2960;49.142;7.768;2023-07-31T07:12:40;10.80;;;4.13;;
5867;SDS011;2960;49.142;7.768;2023-07-31T07:15:07;11.10;;;4.67;;
5867;SDS011;2960;49.142;7.768;2023-07-31T07:17:35;10.70;;;4.00;;
5867;SDS011;2960;49.142;7.768;2023-07-31T07:20:02;10.83;;;4.30;;
5867;SDS011;2960;49.142;7.768;2023-07-31T07:22:33;12.03;;;4.50;;
5867;SDS011;2960;49.142;7.768;2023-07-31T07:25:00;12.23;;;4.63;;
5867;SDS011;2960;49.142;7.768;2023-07-31T07:27:29;11.07;;;4.30;;
5867;SDS011;2960;49.142;7.768;2023-07-31T07:29:56;11.40;;;4.37;;
5867;SDS011;2960;49.142;7.768;2023-07-31T07:32:23;11.10;;;4.60;;
5867;SDS011;2960;49.142;7.768;2023-07-31T07:34:52;11.30;;;4.43;;
5867;SDS011;2960;49.142;7.768;2023-07-31T07:37:19;11.13;;;4.33;;
5867;SDS011;2960;49.142;7.768;2023-07-31T07:39:46;12.07;;;4.53;;
5867;SDS011;2960;49.142;7.768;2023-07-31T07:42:13;10.67;;;3.97;;
5867;SDS011;2960;49.142;7.768;2023-07-31T07:44:41;11.03;;;4.20;;
5867;SDS011;2960;49.142;7.768;2023-07-31T07:47:09;11.10;;;4.20;;
5867;SDS011;2960;49.142;7.768;2023-07-31T07:49:36;10.87;;;3.97;;
5867;SDS011;2960;49.142;7.768;2023-07-31T07:52:03;10.87;;;4.10;;
5867;SDS011;2960;49.142;7.768;2023-07-31T07:54:33;13.90;;;4.30;;
5867;SDS011;2960;49.142;7.768;2023-07-31T07:57:00;10.83;;;4.70;;
5867;SDS011;2960;49.142;7.768;2023-07-31T07:59:28;11.90;;;4.30;;
5867;SDS011;2960;49.142;7.768;2023-07-31T08:01:56;11.30;;;4.40;;
5867;SDS011;2960;49.142;7.768;2023-07-31T08:04:24;11.20;;;4.50;;
5867;SDS011;2960;49.142;7.768;2023-07-31T08:06:51;13.63;;;4.80;;
5867;SDS011;2960;49.142;7.768;2023-07-31T08:09:18;11.80;;;5.00;;
5867;SDS011;2960;49.142;7.768;2023-07-31T08:11:48;10.93;;;4.50;;
5867;SDS011;2960;49.142;7.768;2023-07-31T08:14:15;11.17;;;4.63;;
5867;SDS011;2960;49.142;7.768;2023-07-31T08:16:42;12.83;;;4.47;;
5867;SDS011;2960;49.142;7.768;2023-07-31T08:19:12;11.20;;;4.60;;
5867;SDS011;2960;49.142;7.768;2023-07-31T08:21:39;12.03;;;4.70;;
5867;SDS011;2960;49.142;7.768;2023-07-31T08:24:06;11.80;;;4.90;;
5867;SDS011;2960;49.142;7.768;2023-07-31T08:26:34;12.40;;;5.07;;
5867;SDS011;2960;49.142;7.768;2023-07-31T08:29:01;11.80;;;5.20;;
5867;SDS011;2960;49.142;7.768;2023-07-31T08:31:29;12.70;;;5.57;;
5867;SDS011;2960;49.142;7.768;2023-07-31T08:33:56;11.03;;;4.77;;
5867;SDS011;2960;49.142;7.768;2023-07-31T08:36:24;11.17;;;4.63;;
5867;SDS011;2960;49.142;7.768;2023-07-31T08:38:52;11.33;;;4.87;;
5867;SDS011;2960;49.142;7.768;2023-07-31T08:41:19;11.60;;;4.80;;
5867;SDS011;2960;49.142;7.768;2023-07-31T08:43:46;11.60;;;4.93;;
5867;SDS011;2960;49.142;7.768;2023-07-31T08:46:14;11.17;;;4.73;;
5867;SDS011;2960;49.142;7.768;2023-07-31T08:48:42;11.97;;;5.10;;
5867;SDS011;2960;49.142;7.768;2023-07-31T08:51:10;11.80;;;5.13;;
5867;SDS011;2960;49.142;7.768;2023-07-31T08:53:38;11.07;;;4.80;;
5867;SDS011;2960;49.142;7.768;2023-07-31T08:56:06;14.10;;;5.13;;
5867;SDS011;2960;49.142;7.768;2023-07-31T08:58:33;11.80;;;4.80;;
5867;SDS011;2960;49.142;7.768;2023-07-31T09:01:03;12.37;;;4.90;;
5867;SDS011;2960;49.142;7.768;2023-07-31T09:03:33;11.17;;;4.60;;
5867;SDS011;2960;49.142;7.768;2023-07-31T09:06:02;12.53;;;5.10;;
5867;SDS011;2960;49.142;7.768;2023-07-31T09:08:31;12.10;;;5.07;;
5867;SDS011;2960;49.142;7.768;2023-07-31T09:11:00;11.67;;;4.90;;
5867;SDS011;2960;49.142;7.768;2023-07-31T09:13:30;12.30;;;5.20;;
5867;SDS011;2960;49.142;7.768;2023-07-31T09:15:58;11.40;;;4.60;;
5867;SDS011;2960;49.142;7.768;2023-07-31T09:18:25;12.30;;;5.00;;
5867;SDS011;2960;49.142;7.768;2023-07-31T09:23:41;11.80;;;5.07;;
5867;SDS011;2960;49.142;7.768;2023-07-31T09:26:11;12.30;;;5.10;;
5867;SDS011;2960;49.142;7.768;2023-07-31T09:28:56;11.20;;;4.90;;
5867;SDS011;2960;49.142;7.768;2023-07-31T09:31:31;13.20;;;5.20;;
5867;SDS011;2960;49.142;7.768;2023-07-31T09:34:00;11.67;;;5.00;;
5867;SDS011;2960;49.142;7.768;2023-07-31T09:36:28;14.37;;;5.30;;
5867;SDS011;2960;49.142;7.768;2023-07-31T09:38:58;18.80;;;5.77;;
5867;SDS011;2960;49.142;7.768;2023-07-31T09:41:30;11.53;;;5.10;;
5867;SDS011;2960;49.142;7.768;2023-07-31T09:43:57;12.27;;;5.10;;
5867;SDS011;2960;49.142;7.768;2023-07-31T09:46:26;12.70;;;5.80;;
5867;SDS011;2960;49.142;7.768;2023-07-31T09:49:02;12.17;;;5.23;;
5867;SDS011;2960;49.142;7.768;2023-07-31T09:51:35;14.00;;;5.33;;
5867;SDS011;2960;49.142;7.768;2023-07-31T09:54:08;12.17;;;5.10;;
5867;SDS011;2960;49.142;7.768;2023-07-31T09:56:41;12.60;;;5.83;;
5867;SDS011;2960;49.142;7.768;2023-07-31T09:59:11;13.67;;;5.93;;
5867;SDS011;2960;49.142;7.768;2023-07-31T10:01:40;13.40;;;5.40;;
5867;SDS011;2960;49.142;7.768;2023-07-31T10:04:09;13.00;;;5.77;;
5867;SDS011;2960;49.142;7.768;2023-07-31T10:06:37;12.90;;;5.70;;
5867;SDS011;2960;49.142;7.768;2023-07-31T10:09:08;13.37;;;5.37;;
5867;SDS011;2960;49.142;7.768;2023-07-31T10:11:41;13.43;;;6.23;;
5867;SDS011;2960;49.142;7.768;2023-07-31T10:14:16;13.17;;;5.80;;
5867;SDS011;2960;49.142;7.768;2023-07-31T10:16:45;18.13;;;6.57;;
5867;SDS011;2960;49.142;7.768;2023-07-31T10:19:12;13.30;;;5.40;;
5867;SDS011;2960;49.142;7.768;2023-07-31T10:21:39;13.43;;;5.77;;
5867;SDS011;2960;49.142;7.768;2023-07-31T10:24:09;12.57;;;5.37;;
5867;SDS011;2960;49.142;7.768;2023-07-31T10:26:36;12.40;;;5.40;;
5867;SDS011;2960;49.142;7.768;2023-07-31T10:29:08;13.20;;;5.23;;
5867;SDS011;2960;49.142;7.768;2023-07-31T10:31:35;12.10;;;5.50;;
5867;SDS011;2960;49.142;7.768;2023-07-31T10:34:03;13.60;;;5.30;;
5867;SDS011;2960;49.142;7.768;2023-07-31T10:36:32;12.93;;;5.07;;
5867;SDS011;2960;49.142;7.768;2023-07-31T10:39:00;12.80;;;5.30;;
5867;SDS011;2960;49.142;7.768;2023-07-31T10:41:32;15.57;;;5.03;;
5867;SDS011;2960;49.142;7.768;2023-07-31T10:44:00;13.00;;;5.40;;
5867;SDS011;2960;49.142;7.768;2023-07-31T10:46:32;15.03;;;5.67;;
5867;SDS011;2960;49.142;7.768;2023-07-31T10:49:00;12.60;;;4.90;;
5867;SDS011;2960;49.142;7.768;2023-07-31T10:51:35;12.57;;;4.80;;
5867;SDS011;2960;49.142;7.768;2023-07-31T10:54:11;12.73;;;4.97;;
5867;SDS011;2960;49.142;7.768;2023-07-31T10:56:40;12.37;;;5.27;;
5867;SDS011;2960;49.142;7.768;2023-07-31T10:59:13;12.17;;;5.60;;
5867;SDS011;2960;49.142;7.768;2023-07-31T11:01:52;12.73;;;5.73;;
5867;SDS011;2960;49.142;7.768;2023-07-31T11:04:22;12.90;;;5.23;;
5867;SDS011;2960;49.142;7.768;2023-07-31T11:06:57;12.50;;;5.30;;
5867;SDS011;2960;49.142;7.768;2023-07-31T11:09:27;12.30;;;5.70;;
5867;SDS011;2960;49.142;7.768;2023-07-31T11:11:57;12.60;;;5.00;;
5867;SDS011;2960;49.142;7.768;2023-07-31T11:14:26;13.53;;;5.30;;
5867;SDS011;2960;49.142;7.768;2023-07-31T11:16:54;11.37;;;4.57;;
5867;SDS011;2960;49.142;7.768;2023-07-31T11:19:21;13.60;;;5.43;;
5867;SDS011;2960;49.142;7.768;2023-07-31T11:21:49;12.80;;;5.47;;
5867;SDS011;2960;49.142;7.768;2023-07-31T11:24:18;14.30;;;6.17;;
5867;SDS011;2960;49.142;7.768;2023-07-31T11:26:49;12.37;;;5.27;;
5867;SDS011;2960;49.142;7.768;2023-07-31T11:29:17;12.70;;;5.13;;
5867;SDS011;2960;49.142;7.768;2023-07-31T11:31:46;12.50;;;5.10;;
5867;SDS011;2960;49.142;7.768;2023-07-31T11:34:14;12.50;;;5.10;;
5867;SDS011;2960;49.142;7.768;2023-07-31T11:36:52;12.73;;;5.53;;
5867;SDS011;2960;49.142;7.768;2023-07-31T11:39:20;12.77;;;5.47;;
5867;SDS011;2960;49.142;7.768;2023-07-31T11:41:47;12.50;;;5.40;;
5867;SDS011;2960;49.142;7.768;2023-07-31T11:44:14;12.80;;;5.37;;
5867;SDS011;2960;49.142;7.768;2023-07-31T11:46:41;12.67;;;5.50;;
5867;SDS011;2960;49.142;7.768;2023-07-31T11:49:10;13.97;;;5.67;;
5867;SDS011;2960;49.142;7.768;2023-07-31T11:51:38;12.80;;;4.83;;
5867;SDS011;2960;49.142;7.768;2023-07-31T11:54:05;12.13;;;5.37;;
5867;SDS011;2960;49.142;7.768;2023-07-31T11:56:33;13.00;;;5.87;;
5867;SDS011;2960;49.142;7.768;2023-07-31T11:59:00;11.90;;;4.83;;
5867;SDS011;2960;49.142;7.768;2023-07-31T12:01:30;12.43;;;5.30;;
5867;SDS011;2960;49.142;7.768;2023-07-31T12:03:58;11.90;;;5.00;;
5867;SDS011;2960;49.142;7.768;2023-07-31T12:06:33;14.07;;;5.73;;
5867;SDS011;2960;49.142;7.768;2023-07-31T12:09:03;13.87;;;5.63;;
5867;SDS011;2960;49.142;7.768;2023-07-31T12:11:31;12.10;;;5.30;;
5867;SDS011;2960;49.142;7.768;2023-07-31T12:14:08;12.30;;;4.93;;
5867;SDS011;2960;49.142;7.768;2023-07-31T12:16:47;17.77;;;5.50;;
5867;SDS011;2960;49.142;7.768;2023-07-31T12:19:19;12.03;;;5.27;;
5867;SDS011;2960;49.142;7.768;2023-07-31T12:21:48;12.57;;;5.20;;
5867;SDS011;2960;49.142;7.768;2023-07-31T12:24:17;11.60;;;4.77;;
5867;SDS011;2960;49.142;7.768;2023-07-31T12:26:45;12.10;;;5.37;;
5867;SDS011;2960;49.142;7.768;2023-07-31T12:29:12;12.63;;;5.10;;
5867;SDS011;2960;49.142;7.768;2023-07-31T12:31:40;12.27;;;5.03;;
5867;SDS011;2960;49.142;7.768;2023-07-31T12:34:15;14.00;;;5.97;;
5867;SDS011;2960;49.142;7.768;2023-07-31T12:36:44;12.97;;;5.50;;
5867;SDS011;2960;49.142;7.768;2023-07-31T12:39:12;12.90;;;5.20;;
5867;SDS011;2960;49.142;7.768;2023-07-31T12:41:40;12.50;;;5.13;;
5867;SDS011;2960;49.142;7.768;2023-07-31T12:44:08;11.20;;;4.80;;
5867;SDS011;2960;49.142;7.768;2023-07-31T12:46:35;12.10;;;4.93;;
5867;SDS011;2960;49.142;7.768;2023-07-31T12:49:02;11.50;;;5.00;;
5867;SDS011;2960;49.142;7.768;2023-07-31T12:51:30;12.80;;;5.20;;
5867;SDS011;2960;49.142;7.768;2023-07-31T12:53:58;11.73;;;5.10;;
5867;SDS011;2960;49.142;7.768;2023-07-31T12:56:26;13.00;;;5.30;;
5867;SDS011;2960;49.142;7.768;2023-07-31T12:58:57;12.10;;;5.13;;
5867;SDS011;2960;49.142;7.768;2023-07-31T13:01:25;12.70;;;5.17;;
5867;SDS011;2960;49.142;7.768;2023-07-31T13:03:52;13.10;;;5.43;;
5867;SDS011;2960;49.142;7.768;2023-07-31T13:06:19;12.30;;;5.13;;
5867;SDS011;2960;49.142;7.768;2023-07-31T13:08:46;12.23;;;5.30;;
5867;SDS011;2960;49.142;7.768;2023-07-31T13:11:13;13.23;;;5.30;;
5867;SDS011;2960;49.142;7.768;2023-07-31T13:13:42;14.60;;;5.63;;
5867;SDS011;2960;49.142;7.768;2023-07-31T13:16:09;13.30;;;5.23;;
5867;SDS011;2960;49.142;7.768;2023-07-31T13:18:36;11.80;;;5.37;;
5867;SDS011;2960;49.142;7.768;2023-07-31T13:21:04;12.20;;;5.10;;
5867;SDS011;2960;49.142;7.768;2023-07-31T13:23:31;12.53;;;4.90;;
5867;SDS011;2960;49.142;7.768;2023-07-31T13:25:58;12.10;;;5.23;;
5867;SDS011;2960;49.142;7.768;2023-07-31T13:28:25;12.17;;;4.70;;
5867;SDS011;2960;49.142;7.768;2023-07-31T13:30:53;12.40;;;5.20;;
5867;SDS011;2960;49.142;7.768;2023-07-31T13:33:20;14.30;;;4.90;;
5867;SDS011;2960;49.142;7.768;2023-07-31T13:35:47;11.90;;;5.10;;
5867;SDS011;2960;49.142;7.768;2023-07-31T13:38:14;11.80;;;4.40;;
5867;SDS011;2960;49.142;7.768;2023-07-31T13:40:42;12.00;;;5.27;;
5867;SDS011;2960;49.142;7.768;2023-07-31T13:43:09;12.80;;;5.30;;
5867;SDS011;2960;49.142;7.768;2023-07-31T13:45:36;13.23;;;5.30;;
5867;SDS011;2960;49.142;7.768;2023-07-31T13:48:04;11.90;;;5.30;;
5867;SDS011;2960;49.142;7.768;2023-07-31T13:50:31;14.70;;;4.97;;
5867;SDS011;2960;49.142;7.768;2023-07-31T13:52:58;12.20;;;5.10;;
5867;SDS011;2960;49.142;7.768;2023-07-31T13:55:25;13.27;;;4.90;;
5867;SDS011;2960;49.142;7.768;2023-07-31T13:57:52;13.90;;;5.23;;
5867;SDS011;2960;49.142;7.768;2023-07-31T14:00:19;12.20;;;5.40;;
5867;SDS011;2960;49.142;7.768;2023-07-31T14:02:47;11.67;;;4.90;;
5867;SDS011;2960;49.142;7.768;2023-07-31T14:05:15;12.30;;;5.07;;
5867;SDS011;2960;49.142;7.768;2023-07-31T14:07:42;12.37;;;4.90;;
5867;SDS011;2960;49.142;7.768;2023-07-31T14:10:09;11.43;;;4.80;;
5867;SDS011;2960;49.142;7.768;2023-07-31T14:12:36;13.10;;;5.13;;
5867;SDS011;2960;49.142;7.768;2023-07-31T14:15:04;12.30;;;5.30;;
5867;SDS011;2960;49.142;7.768;2023-07-31T14:17:32;12.80;;;5.30;;
5867;SDS011;2960;49.142;7.768;2023-07-31T14:19:59;12.77;;;5.47;;
5867;SDS011;2960;49.142;7.768;2023-07-31T14:22:28;12.10;;;5.40;;
5867;SDS011;2960;49.142;7.768;2023-07-31T14:24:55;11.93;;;4.73;;
5867;SDS011;2960;49.142;7.768;2023-07-31T14:27:23;14.23;;;5.20;;
5867;SDS011;2960;49.142;7.768;2023-07-31T14:29:50;11.50;;;4.70;;
5867;SDS011;2960;49.142;7.768;2023-07-31T14:32:17;12.43;;;4.90;;
5867;SDS011;2960;49.142;7.768;2023-07-31T14:34:44;11.43;;;5.10;;
5867;SDS011;2960;49.142;7.768;2023-07-31T14:37:11;11.70;;;5.00;;
5867;SDS011;2960;49.142;7.768;2023-07-31T14:39:40;12.23;;;5.33;;
5867;SDS011;2960;49.142;7.768;2023-07-31T14:42:07;13.00;;;5.60;;
5867;SDS011;2960;49.142;7.768;2023-07-31T14:44:34;11.63;;;4.97;;
5867;SDS011;2960;49.142;7.768;2023-07-31T14:47:01;12.83;;;5.27;;
5867;SDS011;2960;49.142;7.768;2023-07-31T14:49:28;13.37;;;5.17;;
5867;SDS011;2960;49.142;7.768;2023-07-31T14:51:55;11.70;;;5.03;;
5867;SDS011;2960;49.142;7.768;2023-07-31T14:54:22;13.27;;;5.87;;
5867;SDS011;2960;49.142;7.768;2023-07-31T14:56:51;12.60;;;5.53;;
5867;SDS011;2960;49.142;7.768;2023-07-31T14:59:18;12.10;;;5.13;;
5867;SDS011;2960;49.142;7.768;2023-07-31T15:01:45;12.07;;;5.00;;
5867;SDS011;2960;49.142;7.768;2023-07-31T15:04:12;11.93;;;4.73;;
5867;SDS011;2960;49.142;7.768;2023-07-31T15:06:39;12.30;;;4.83;;
5867;SDS011;2960;49.142;7.768;2023-07-31T15:09:06;12.17;;;5.13;;
5867;SDS011;2960;49.142;7.768;2023-07-31T15:11:33;11.90;;;5.43;;